Time;durP1;ratioP1;P1;durP2;ratioP2;P2;SDS_P1;SDS_P2;PMS_P1;PMS_P2;Temp;Humidity;BMP_temperature;BMP_pressure;BME280_temperature;BME280_humidity;BME280_pressure;Samples;Min_cycle;Max_cycle;Signal;HPM_P1;HPM_P2
2021/05/06 00:33:42;;;;;;;7.13;4.78;;;5.00;99.90;;;;;;5049711;28;20041;-65
2021/05/06 00:36:08;;;;;;;7.20;4.85;;;5.00;99.90;;;;;;5048994;28;20049;-65
2021/05/06 00:38:46;;;;;;;7.95;4.55;;;5.00;99.90;;;;;;5049093;28;20052;-65
2021/05/06 01:08:01;;;;;;;7.60;4.38;;;4.80;99.90;;;;;;5047875;28;20149;-65
2021/05/06 01:13:20;;;;;;;7.50;4.40;;;4.70;99.90;;;;;;5046954;28;20045;-65
2021/05/06 01:15:47;;;;;;;10.05;4.30;;;4.80;99.90;;;;;;5048203;28;20518;-64
2021/05/06 01:18:15;;;;;;;9.45;4.00;;;4.70;99.90;;;;;;5047392;28;20087;-64
2021/05/06 01:20:45;;;;;;;7.45;3.90;;;4.80;99.90;;;;;;5050405;28;20499;-65
2021/05/06 01:23:11;;;;;;;6.90;3.90;;;4.70;99.90;;;;;;5047960;28;20126;-65
2021/05/06 01:25:41;;;;;;;5.47;3.47;;;4.70;99.90;;;;;;5023808;28;20049;-65
2021/05/06 01:28:13;;;;;;;6.38;4.35;;;4.70;99.90;;;;;;5030647;28;20119;-66
2021/05/06 01:30:45;;;;;;;6.13;4.03;;;4.60;99.90;;;;;;5046778;28;20091;-65
2021/05/06 01:33:22;;;;;;;5.28;3.35;;;4.60;99.90;;;;;;5040441;28;20049;-65
2021/05/06 01:35:58;;;;;;;4.95;3.65;;;4.60;99.90;;;;;;5041952;28;20053;-65
2021/05/06 01:46:51;;;;;;;7.15;3.78;;;4.70;99.90;;;;;;5044778;28;20052;-65
2021/05/06 02:00:15;;;;;;;5.72;3.50;;;4.80;99.90;;;;;;5049476;28;20136;-65
2021/05/06 02:02:43;;;;;;;4.70;3.58;;;4.80;99.90;;;;;;5046466;28;20131;-65
2021/05/06 02:05:14;;;;;;;7.63;3.90;;;4.70;99.90;;;;;;5050830;28;20402;-65
2021/05/06 02:07:43;;;;;;;7.13;3.40;;;4.70;99.90;;;;;;5051429;28;20503;-66
2021/05/06 02:10:14;;;;;;;5.10;3.47;;;4.70;99.90;;;;;;5049845;28;20144;-66
2021/05/06 02:12:41;;;;;;;5.28;3.58;;;4.70;99.90;;;;;;5051071;28;20052;-65
2021/05/06 02:15:14;;;;;;;5.95;3.70;;;4.80;99.90;;;;;;5047628;28;20041;-65
2021/05/06 02:17:43;;;;;;;4.45;3.10;;;4.80;99.90;;;;;;5044045;28;20400;-65
2021/05/06 02:20:11;;;;;;;6.10;3.60;;;4.80;99.90;;;;;;5046535;28;20048;-65
2021/05/06 02:22:38;;;;;;;5.25;3.58;;;4.80;99.90;;;;;;5044974;28;20071;-66
2021/05/06 02:25:07;;;;;;;4.63;3.15;;;4.80;99.90;;;;;;5046864;28;20049;-65
2021/05/06 02:27:34;;;;;;;4.97;3.50;;;4.80;99.90;;;;;;5049719;28;20036;-66
2021/05/06 02:30:03;;;;;;;6.47;3.80;;;4.80;99.90;;;;;;5051101;28;20061;-65
2021/05/06 02:32:30;;;;;;;6.78;4.32;;;4.80;99.90;;;;;;5051392;28;20469;-65
2021/05/06 02:34:58;;;;;;;6.63;3.60;;;4.90;99.90;;;;;;5052999;28;20123;-64
2021/05/06 02:37:26;;;;;;;6.45;3.47;;;4.80;99.90;;;;;;5052475;28;20048;-65
2021/05/06 02:39:54;;;;;;;7.80;3.70;;;4.90;99.90;;;;;;5053460;28;20047;-65
2021/05/06 02:42:20;;;;;;;9.80;3.20;;;4.90;99.90;;;;;;5051496;28;20099;-65
2021/05/06 02:44:48;;;;;;;10.82;3.70;;;4.90;99.90;;;;;;5051986;28;20080;-65
2021/05/06 02:47:14;;;;;;;7.55;4.03;;;4.90;99.90;;;;;;5051271;28;20106;-65
2021/05/06 02:49:47;;;;;;;6.45;3.45;;;4.80;99.90;;;;;;5052280;28;20570;-66
2021/05/06 02:52:38;;;;;;;8.13;3.80;;;4.80;99.90;;;;;;5050157;28;20037;-66
2021/05/06 02:58:20;;;;;;;6.00;3.25;;;4.80;99.90;;;;;;4990386;28;20417;-66
2021/05/06 03:03:29;;;;;;;7.43;3.38;;;4.80;99.90;;;;;;4990129;28;20124;-66
2021/05/06 03:05:56;;;;;;;6.50;3.20;;;4.90;99.90;;;;;;4989848;28;20073;-65
2021/05/06 03:08:33;;;;;;;6.72;3.40;;;4.90;99.90;;;;;;4990689;28;20106;-65
2021/05/06 03:24:25;;;;;;;7.43;3.65;;;5.00;99.90;;;;;;4969769;28;20520;-64
2021/05/06 03:26:52;;;;;;;8.73;3.83;;;5.10;99.90;;;;;;4990123;28;20047;-67
2021/05/06 03:29:47;;;;;;;5.07;3.15;;;5.00;99.90;;;;;;4989943;28;20042;-65
2021/05/06 03:32:24;;;;;;;5.30;3.35;;;5.00;99.90;;;;;;4990171;28;20410;-65
2021/05/06 03:43:22;;;;;;;6.90;3.83;;;5.10;99.90;;;;;;5050588;28;20056;-64
2021/05/06 03:46:31;;;;;;;5.78;3.60;;;5.10;99.90;;;;;;5051178;28;20045;-66
2021/05/06 03:49:14;;;;;;;7.93;3.75;;;5.10;99.90;;;;;;5050877;28;20041;-65
2021/05/06 04:27:51;;;;;;;8.38;3.83;;;5.40;99.90;;;;;;5050257;28;20118;-66
2021/05/06 04:35:52;;;;;;;7.03;3.63;;;5.50;99.90;;;;;;5049473;28;20040;-66
2021/05/06 04:38:22;;;;;;;8.23;3.75;;;5.50;99.90;;;;;;5048540;28;20082;-66
2021/05/06 04:46:20;;;;;;;7.68;4.03;;;5.70;99.90;;;;;;5044699;28;20045;-65
2021/05/06 05:04:52;;;;;;;6.07;4.20;;;6.00;99.90;;;;;;5049117;28;20057;-65
2021/05/06 05:07:35;;;;;;;6.10;3.63;;;6.10;99.90;;;;;;5049048;28;20586;-65
2021/05/06 05:23:44;;;;;;;6.13;3.80;;;6.70;99.90;;;;;;5049833;28;20060;-65
2021/05/06 05:26:12;;;;;;;6.40;3.85;;;6.80;99.90;;;;;;5047065;28;20052;-65
2021/05/06 05:28:40;;;;;;;7.95;3.90;;;6.90;99.90;;;;;;5050536;28;20099;-64
2021/05/06 05:31:07;;;;;;;8.20;4.22;;;6.90;99.90;;;;;;5053406;28;20053;-65
2021/05/06 05:33:39;;;;;;;5.10;4.10;;;7.00;99.90;;;;;;5053599;28;20042;-64
2021/05/06 05:36:12;;;;;;;6.10;4.07;;;7.10;99.90;;;;;;5052887;28;20504;-64
2021/05/06 05:38:58;;;;;;;5.78;4.07;;;7.10;99.90;;;;;;5052566;28;20053;-65
2021/05/06 05:55:07;;;;;;;5.70;4.07;;;7.60;99.90;;;;;;5053344;28;20061;-65
2021/05/06 05:57:34;;;;;;;7.38;4.70;;;7.70;99.90;;;;;;5053369;28;20049;-65
2021/05/06 06:00:04;;;;;;;5.97;4.72;;;7.80;99.90;;;;;;5051012;28;20045;-65
2021/05/06 06:02:33;;;;;;;6.65;4.75;;;8.00;99.90;;;;;;5048978;28;20048;-65
2021/05/06 06:05:01;;;;;;;11.30;5.00;;;8.00;99.90;;;;;;5052043;28;20075;-65
2021/05/06 06:07:28;;;;;;;8.38;5.13;;;8.10;99.90;;;;;;5053365;28;20045;-65
2021/05/06 06:09:56;;;;;;;7.65;5.22;;;8.00;99.90;;;;;;5053685;28;20134;-65
2021/05/06 06:12:23;;;;;;;8.50;5.20;;;7.90;99.90;;;;;;5049316;28;20049;-65
2021/05/06 06:14:59;;;;;;;8.15;4.90;;;7.90;99.90;;;;;;5053606;28;20179;-65
2021/05/06 06:17:26;;;;;;;11.05;5.50;;;7.90;99.90;;;;;;5050468;28;21085;-65
2021/05/06 06:19:57;;;;;;;6.55;4.70;;;7.90;99.90;;;;;;5050872;28;20063;-65
2021/05/06 06:22:26;;;;;;;6.15;5.13;;;8.00;99.90;;;;;;5052996;28;20057;-65
2021/05/06 06:24:53;;;;;;;9.00;5.30;;;8.10;99.90;;;;;;5051578;28;20106;-65
2021/05/06 06:27:21;;;;;;;9.10;5.70;;;8.00;99.90;;;;;;5051366;28;20419;-65
2021/05/06 06:29:49;;;;;;;8.95;5.38;;;8.10;99.90;;;;;;5066223;28;20087;-65
2021/05/06 06:32:17;;;;;;;8.05;5.25;;;8.10;99.90;;;;;;5051459;28;20459;-65
2021/05/06 06:34:44;;;;;;;10.23;5.70;;;8.20;99.90;;;;;;5049028;28;20045;-65
2021/05/06 06:37:11;;;;;;;6.72;5.65;;;8.40;99.90;;;;;;5059632;28;20111;-65
2021/05/06 06:39:40;;;;;;;6.57;5.97;;;8.50;99.90;;;;;;5050823;28;20045;-65
2021/05/06 06:42:10;;;;;;;6.28;5.57;;;8.50;99.90;;;;;;5046576;28;20108;-66
2021/05/06 06:44:38;;;;;;;11.77;5.80;;;8.30;99.90;;;;;;5049233;28;20049;-65
2021/05/06 06:47:07;;;;;;;9.50;6.22;;;8.20;99.90;;;;;;5047237;28;20415;-65
2021/05/06 06:49:37;;;;;;;9.63;6.10;;;8.20;99.90;;;;;;5045711;28;20618;-65
2021/05/06 06:52:06;;;;;;;6.72;5.93;;;8.30;99.90;;;;;;5049241;28;20103;-65
2021/05/06 06:54:33;;;;;;;7.30;5.88;;;8.40;99.90;;;;;;5048195;28;20045;-64
2021/05/06 06:57:08;;;;;;;7.93;6.00;;;8.40;99.90;;;;;;5050966;28;20124;-65
2021/05/06 06:59:35;;;;;;;7.38;6.00;;;8.60;99.90;;;;;;5051071;28;20056;-64
2021/05/06 07:02:02;;;;;;;7.63;6.50;;;8.70;99.90;;;;;;5049324;28;20052;-65
2021/05/06 07:04:30;;;;;;;9.13;6.22;;;8.80;99.90;;;;;;5050694;28;20049;-65
2021/05/06 07:06:57;;;;;;;6.95;6.35;;;8.70;99.90;;;;;;5051682;28;20501;-65
2021/05/06 07:09:25;;;;;;;7.43;6.70;;;8.70;99.90;;;;;;5052724;28;20076;-65
2021/05/06 07:11:52;;;;;;;9.93;6.68;;;8.80;99.90;;;;;;5049964;28;20074;-65
2021/05/06 07:14:18;;;;;;;8.68;6.82;;;8.80;99.90;;;;;;5051111;28;20500;-65
2021/05/06 07:16:48;;;;;;;14.98;7.15;;;8.90;99.90;;;;;;5049479;28;20479;-65
2021/05/06 07:19:15;;;;;;;6.90;6.20;;;9.10;99.90;;;;;;5051485;28;20515;-66
2021/05/06 07:21:42;;;;;;;7.35;6.53;;;9.10;99.90;;;;;;5051301;28;20124;-64
2021/05/06 07:24:09;;;;;;;9.15;7.03;;;9.20;99.90;;;;;;5050196;28;20060;-66
2021/05/06 07:26:42;;;;;;;9.48;7.10;;;9.40;99.90;;;;;;5048142;28;20061;-65
2021/05/06 07:29:14;;;;;;;7.57;6.88;;;9.70;99.90;;;;;;5048953;28;20060;-65
2021/05/06 07:31:42;;;;;;;8.18;6.93;;;9.70;99.90;;;;;;5046313;28;20045;-65
2021/05/06 07:34:11;;;;;;;12.10;7.10;;;9.60;99.90;;;;;;5050093;28;20072;-64
2021/05/06 07:36:40;;;;;;;8.25;7.22;;;9.40;99.90;;;;;;5049224;28;20053;-65
2021/05/06 07:39:09;;;;;;;10.00;6.82;;;9.30;99.90;;;;;;5050241;28;20557;-65
2021/05/06 07:41:38;;;;;;;9.27;7.32;;;9.20;99.90;;;;;;5051450;28;20052;-65
2021/05/06 07:44:08;;;;;;;8.23;7.13;;;9.00;99.90;;;;;;5033719;28;20076;-66
2021/05/06 07:46:38;;;;;;;8.35;7.38;;;9.10;99.90;;;;;;5043813;28;20471;-65
2021/05/06 07:49:07;;;;;;;11.00;7.15;;;9.20;99.90;;;;;;5046129;28;20055;-65
2021/05/06 07:51:38;;;;;;;10.20;7.35;;;9.20;99.90;;;;;;5050312;28;20103;-66
2021/05/06 07:54:09;;;;;;;9.07;7.40;;;9.30;99.90;;;;;;5051583;28;20392;-66
2021/05/06 07:56:42;;;;;;;7.95;7.20;;;9.40;99.90;;;;;;5050929;28;20037;-66
2021/05/06 07:59:09;;;;;;;9.75;6.75;;;9.40;99.90;;;;;;5050580;28;20045;-65
2021/05/06 08:01:36;;;;;;;7.70;7.00;;;9.50;99.90;;;;;;5051347;28;20443;-65
2021/05/06 08:04:03;;;;;;;8.75;7.20;;;9.60;99.90;;;;;;5050507;28;20123;-66
2021/05/06 08:06:30;;;;;;;9.75;7.03;;;9.50;99.90;;;;;;5050003;28;20131;-66
2021/05/06 08:08:57;;;;;;;8.85;7.07;;;9.50;99.90;;;;;;5048879;28;20057;-65
2021/05/06 08:11:24;;;;;;;8.70;7.30;;;9.40;99.90;;;;;;5048827;28;20102;-65
2021/05/06 08:13:51;;;;;;;8.10;7.07;;;9.30;99.90;;;;;;5050036;28;20782;-66
2021/05/06 08:16:18;;;;;;;7.90;6.82;;;9.40;99.90;;;;;;5050512;28;20060;-65
2021/05/06 08:18:45;;;;;;;10.43;6.68;;;9.20;99.90;;;;;;5050214;28;20118;-64
2021/05/06 08:21:12;;;;;;;7.57;6.78;;;9.10;99.90;;;;;;5049275;28;20041;-65
2021/05/06 08:23:40;;;;;;;11.27;7.00;;;9.30;99.90;;;;;;5048650;28;20052;-66
2021/05/06 08:26:07;;;;;;;9.07;7.45;;;9.50;99.90;;;;;;5050327;28;20068;-65
2021/05/06 08:28:52;;;;;;;9.73;6.95;;;9.50;99.90;;;;;;5050303;28;20500;-65
2021/05/06 08:31:19;;;;;;;7.47;6.88;;;9.60;99.90;;;;;;5047982;28;20044;-65
2021/05/06 08:33:46;;;;;;;9.80;6.97;;;9.70;99.90;;;;;;5047383;28;20037;-65
2021/05/06 08:36:13;;;;;;;7.55;6.95;;;9.60;99.90;;;;;;5049740;28;20041;-65
2021/05/06 08:38:40;;;;;;;8.57;6.75;;;9.40;99.90;;;;;;5046014;28;20056;-64
2021/05/06 08:41:07;;;;;;;8.48;6.75;;;9.40;99.90;;;;;;5032844;28;20124;-65
2021/05/06 08:43:39;;;;;;;7.57;6.88;;;9.40;99.90;;;;;;5048920;28;20072;-65
2021/05/06 08:46:07;;;;;;;9.77;7.20;;;9.20;99.90;;;;;;5050427;28;20102;-65
2021/05/06 08:48:54;;;;;;;8.52;6.85;;;9.10;99.90;;;;;;5048035;28;20071;-65
2021/05/06 08:51:23;;;;;;;10.70;7.32;;;9.00;99.90;;;;;;5045755;28;20100;-64
2021/05/06 08:53:50;;;;;;;7.90;6.70;;;9.00;99.90;;;;;;5031912;28;20049;-65
2021/05/06 08:56:17;;;;;;;8.52;6.45;;;9.00;99.90;;;;;;5048602;28;20494;-66
2021/05/06 08:58:44;;;;;;;7.38;6.38;;;8.90;99.90;;;;;;5049909;28;20055;-66
2021/05/06 09:01:11;;;;;;;10.07;6.07;;;8.90;99.90;;;;;;5049583;28;20045;-66
2021/05/06 09:03:39;;;;;;;7.90;6.07;;;8.80;99.90;;;;;;5050437;28;20099;-65
2021/05/06 09:06:18;;;;;;;7.88;6.20;;;8.70;99.90;;;;;;5050021;28;20495;-66
2021/05/06 09:08:52;;;;;;;11.32;6.30;;;8.70;99.90;;;;;;5049802;28;20063;-66
2021/05/06 09:11:43;;;;;;;9.07;6.20;;;8.70;99.90;;;;;;5046933;28;20091;-66
2021/05/06 09:14:11;;;;;;;6.85;5.63;;;8.70;99.90;;;;;;5049932;28;20403;-66
2021/05/06 09:16:42;;;;;;;8.20;6.07;;;8.60;99.90;;;;;;5049599;28;20041;-64
2021/05/06 09:19:15;;;;;;;7.95;6.00;;;8.60;99.90;;;;;;5047414;28;20164;-65
2021/05/06 09:21:45;;;;;;;6.35;5.35;;;8.60;99.90;;;;;;5050558;28;20044;-65
2021/05/06 09:24:12;;;;;;;6.80;5.10;;;8.60;99.90;;;;;;5049017;28;20135;-65
2021/05/06 09:26:41;;;;;;;9.20;5.32;;;8.70;99.90;;;;;;5048211;28;20057;-65
2021/05/06 09:29:10;;;;;;;7.95;5.40;;;8.70;99.90;;;;;;5047817;28;20048;-64
2021/05/06 09:31:41;;;;;;;9.45;5.60;;;8.80;99.90;;;;;;5046173;28;20053;-68
2021/05/06 09:34:11;;;;;;;8.57;5.90;;;8.90;99.90;;;;;;5047757;28;20118;-67
2021/05/06 09:36:43;;;;;;;8.68;5.53;;;8.90;99.90;;;;;;5051156;28;20395;-67
2021/05/06 09:39:30;;;;;;;7.23;5.70;;;8.90;99.90;;;;;;5048236;28;20152;-65
2021/05/06 09:42:07;;;;;;;9.13;5.75;;;9.00;99.90;;;;;;5048835;28;20462;-65
2021/05/06 09:44:55;;;;;;;9.00;5.50;;;9.00;99.90;;;;;;5046674;28;20048;-66
2021/05/06 09:47:22;;;;;;;10.57;5.80;;;9.10;99.90;;;;;;5048218;28;20119;-67
2021/05/06 09:49:50;;;;;;;7.10;5.28;;;9.10;99.90;;;;;;5044644;28;20453;-65
2021/05/06 09:52:17;;;;;;;8.60;5.28;;;9.10;99.90;;;;;;5043713;28;20533;-66
2021/05/06 09:54:51;;;;;;;8.98;5.05;;;9.00;99.90;;;;;;5048942;28;20498;-65
2021/05/06 09:57:34;;;;;;;9.70;5.50;;;9.10;99.90;;;;;;5049400;28;20037;-64
2021/05/06 10:00:17;;;;;;;9.02;5.28;;;9.10;99.90;;;;;;5048202;28;20037;-65
2021/05/06 10:02:45;;;;;;;9.45;5.25;;;9.10;99.90;;;;;;5049667;28;20053;-65
2021/05/06 10:05:36;;;;;;;6.68;5.30;;;9.20;99.90;;;;;;5051520;28;20171;-65
2021/05/06 10:08:03;;;;;;;8.98;5.40;;;9.20;99.90;;;;;;5045765;28;20076;-65
2021/05/06 10:10:30;;;;;;;6.28;5.05;;;9.20;99.90;;;;;;5045352;28;20126;-64
2021/05/06 10:12:58;;;;;;;7.25;5.43;;;9.10;99.90;;;;;;5044126;28;20135;-65
2021/05/06 10:15:25;;;;;;;6.43;5.32;;;9.10;99.90;;;;;;5051027;28;20402;-65
2021/05/06 10:17:53;;;;;;;6.97;4.95;;;9.00;99.90;;;;;;5052787;28;20458;-66
2021/05/06 10:20:23;;;;;;;8.48;5.55;;;9.00;99.90;;;;;;5050484;28;20044;-66
2021/05/06 10:22:56;;;;;;;8.00;5.07;;;8.90;99.90;;;;;;5050905;28;20052;-66
2021/05/06 10:25:25;;;;;;;9.52;4.97;;;9.00;99.90;;;;;;5050127;28;20551;-66
2021/05/06 10:27:54;;;;;;;9.45;4.80;;;9.20;99.90;;;;;;5051302;28;20503;-66
2021/05/06 10:30:22;;;;;;;8.85;5.15;;;9.50;99.90;;;;;;5049889;28;20037;-66
2021/05/06 10:32:49;;;;;;;12.13;4.70;;;9.60;99.90;;;;;;5053076;28;20051;-67
2021/05/06 10:35:25;;;;;;;9.60;5.45;;;9.80;99.90;;;;;;5052812;28;20091;-66
2021/05/06 10:37:55;;;;;;;9.82;5.85;;;10.00;99.90;;;;;;5048475;28;20059;-66
2021/05/06 10:40:22;;;;;;;9.55;5.68;;;10.00;99.90;;;;;;5053129;28;20041;-66
2021/05/06 10:42:51;;;;;;;9.63;5.60;;;10.00;99.90;;;;;;5052373;28;20699;-66
2021/05/06 10:45:18;;;;;;;9.93;5.95;;;10.00;99.90;;;;;;5052334;28;20146;-66
2021/05/06 10:47:49;;;;;;;11.23;5.90;;;10.00;99.90;;;;;;5053307;28;20108;-66
2021/05/06 10:50:22;;;;;;;9.15;6.22;;;10.00;99.90;;;;;;5045554;28;20056;-66
2021/05/06 10:52:57;;;;;;;12.02;6.82;;;10.00;99.90;;;;;;5050832;28;20047;-66
2021/05/06 10:55:57;;;;;;;9.68;5.72;;;10.10;99.90;;;;;;5052302;28;20061;-66
2021/05/06 11:01:03;;;;;;;12.60;6.53;;;9.80;99.90;;;;;;5051235;28;20064;-66
2021/05/06 11:03:32;;;;;;;9.82;6.07;;;9.80;99.90;;;;;;5050343;28;20053;-66
2021/05/06 11:05:59;;;;;;;7.45;5.78;;;9.80;99.90;;;;;;5052516;28;20552;-66
2021/05/06 11:08:31;;;;;;;10.35;6.38;;;9.90;99.90;;;;;;5047054;28;20057;-67
2021/05/06 11:11:04;;;;;;;7.68;6.18;;;9.90;99.90;;;;;;5053519;28;20059;-66
2021/05/06 11:14:05;;;;;;;8.95;6.60;;;9.90;99.90;;;;;;5050850;28;20119;-66
2021/05/06 11:16:36;;;;;;;12.13;6.60;;;10.00;99.90;;;;;;5050617;28;20152;-66
2021/05/06 11:19:04;;;;;;;9.35;6.20;;;9.80;99.90;;;;;;5049702;28;20051;-67
2021/05/06 11:21:31;;;;;;;9.52;6.72;;;9.70;99.90;;;;;;5047432;28;20729;-66
2021/05/06 11:24:13;;;;;;;9.07;5.85;;;9.60;99.90;;;;;;5049966;28;20079;-66
2021/05/06 11:26:58;;;;;;;;;;;9.70;99.90;;;;;;5049904;28;20040;-66
2021/05/06 11:29:31;;;;;;;10.10;5.82;;;9.70;99.90;;;;;;5049879;28;19928;-66
2021/05/06 11:31:58;;;;;;;8.18;5.68;;;9.70;99.90;;;;;;5052019;28;20060;-67
2021/05/06 11:34:34;;;;;;;11.13;5.50;;;9.70;99.90;;;;;;5050601;28;20514;-65
2021/05/06 11:37:14;;;;;;;7.57;5.82;;;9.80;99.90;;;;;;5049871;28;20059;-66
2021/05/06 11:39:51;;;;;;;7.05;5.72;;;9.80;99.90;;;;;;5049677;28;20091;-67
2021/05/06 11:42:19;;;;;;;9.60;5.78;;;9.80;99.90;;;;;;5049749;28;20045;-67
2021/05/06 11:45:04;;;;;;;9.27;6.32;;;9.80;99.90;;;;;;5050174;28;20511;-65
2021/05/06 11:47:31;;;;;;;9.23;6.00;;;9.70;99.90;;;;;;5049052;28;20053;-65
2021/05/06 11:49:59;;;;;;;12.10;6.63;;;9.70;99.90;;;;;;5048435;28;20115;-65
2021/05/06 11:52:33;;;;;;;10.27;7.35;;;9.80;99.90;;;;;;5051404;28;20045;-65
2021/05/06 11:55:01;;;;;;;9.50;5.95;;;9.70;99.90;;;;;;5052196;28;20522;-65
2021/05/06 11:57:28;;;;;;;9.45;6.15;;;9.60;99.90;;;;;;5053225;28;20052;-65
2021/05/06 11:59:56;;;;;;;10.50;6.03;;;9.50;99.90;;;;;;5052308;28;20041;-66
2021/05/06 12:02:24;;;;;;;11.07;6.05;;;9.70;99.90;;;;;;5056647;28;20590;-66
2021/05/06 12:04:53;;;;;;;7.65;5.90;;;9.80;99.90;;;;;;5058722;28;20045;-66
2021/05/06 12:07:23;;;;;;;10.38;5.90;;;9.90;99.90;;;;;;5053131;28;20526;-66
2021/05/06 12:09:50;;;;;;;9.70;6.30;;;10.00;99.90;;;;;;5056323;28;20055;-66
2021/05/06 12:12:22;;;;;;;7.72;6.57;;;10.00;99.90;;;;;;5051969;28;20052;-67
2021/05/06 12:14:51;;;;;;;9.35;5.97;;;10.00;99.90;;;;;;5026641;28;20359;-66
2021/05/06 12:17:19;;;;;;;9.77;6.38;;;9.90;99.90;;;;;;5048307;28;20484;-66
2021/05/06 12:19:48;;;;;;;10.02;6.13;;;9.70;99.90;;;;;;5049460;28;20076;-66
2021/05/06 12:22:17;;;;;;;8.45;6.10;;;9.70;99.90;;;;;;5052555;28;20833;-66
2021/05/06 12:24:49;;;;;;;9.38;6.22;;;9.70;99.90;;;;;;5052017;28;20114;-66
2021/05/06 12:27:24;;;;;;;9.95;6.15;;;9.80;99.90;;;;;;5052997;28;20041;-64
2021/05/06 12:30:10;;;;;;;10.93;6.70;;;9.70;99.90;;;;;;5049916;28;20045;-66
2021/05/06 12:32:46;;;;;;;10.35;6.60;;;9.70;99.90;;;;;;5036801;28;20073;-65
2021/05/06 12:35:15;;;;;;;11.48;7.10;;;9.70;99.90;;;;;;5053629;28;20055;-66
2021/05/06 12:37:44;;;;;;;13.05;6.32;;;9.70;99.90;;;;;;5053002;28;20510;-65
2021/05/06 12:40:14;;;;;;;13.13;6.90;;;9.80;99.90;;;;;;5053079;28;20063;-66
2021/05/06 12:42:45;;;;;;;10.88;6.25;;;9.90;99.90;;;;;;5055991;28;20454;-65
2021/05/06 12:45:16;;;;;;;9.05;7.03;;;9.90;99.90;;;;;;5050792;28;20112;-66
2021/05/06 12:47:45;;;;;;;10.27;6.32;;;9.80;99.90;;;;;;5052229;28;20049;-65
2021/05/06 12:50:26;;;;;;;11.63;6.57;;;9.60;99.90;;;;;;5047111;28;20053;-65
2021/05/06 12:52:55;;;;;;;8.70;6.53;;;9.60;99.90;;;;;;5048665;28;20091;-65
2021/05/06 12:55:22;;;;;;;15.27;6.65;;;9.50;99.90;;;;;;5049769;28;20910;-66
2021/05/06 12:58:07;;;;;;;10.43;7.30;;;9.50;99.90;;;;;;5048919;28;20124;-66
2021/05/06 13:00:36;;;;;;;9.57;6.10;;;9.40;99.90;;;;;;5048789;28;20041;-66
2021/05/06 13:03:08;;;;;;;7.88;5.93;;;9.40;99.90;;;;;;5048418;28;20041;-65
2021/05/06 13:05:38;;;;;;;11.88;6.15;;;9.40;99.90;;;;;;5049212;28;20127;-66
2021/05/06 13:08:05;;;;;;;8.90;5.90;;;9.40;99.90;;;;;;5047337;28;20419;-66
2021/05/06 13:10:40;;;;;;;7.90;6.25;;;9.40;99.90;;;;;;5045348;28;20048;-66
2021/05/06 13:13:09;;;;;;;8.65;6.10;;;9.40;99.90;;;;;;5048298;28;20045;-66
2021/05/06 13:15:46;;;;;;;10.40;6.13;;;9.40;99.90;;;;;;5048396;28;20056;-66
2021/05/06 13:18:13;;;;;;;9.13;6.70;;;9.50;99.90;;;;;;5049292;28;20399;-66
2021/05/06 13:20:41;;;;;;;6.60;5.90;;;9.50;99.90;;;;;;5047572;28;20556;-67
2021/05/06 13:23:09;;;;;;;7.88;5.80;;;9.40;99.90;;;;;;5048589;28;20072;-66
2021/05/06 13:25:50;;;;;;;10.90;6.40;;;9.40;99.90;;;;;;5046505;28;20052;-66
2021/05/06 13:28:31;;;;;;;11.10;6.80;;;9.30;99.90;;;;;;5048462;28;20048;-66
2021/05/06 13:31:20;;;;;;;8.88;6.22;;;9.40;99.90;;;;;;5052161;28;20148;-66
2021/05/06 13:34:07;;;;;;;11.60;6.90;;;9.40;99.90;;;;;;5051265;28;20076;-66
2021/05/06 13:36:34;;;;;;;9.80;6.45;;;9.30;99.90;;;;;;5053776;28;20056;-66
2021/05/06 13:39:08;;;;;;;10.63;6.32;;;9.30;99.90;;;;;;5055486;28;20045;-66
2021/05/06 13:41:38;;;;;;;7.07;6.28;;;9.30;99.90;;;;;;5057072;28;20037;-66
2021/05/06 13:44:07;;;;;;;8.88;6.35;;;9.30;99.90;;;;;;5052939;28;20049;-67
2021/05/06 13:46:43;;;;;;;9.73;6.57;;;9.30;99.90;;;;;;5050597;28;20060;-67
2021/05/06 13:49:11;;;;;;;11.65;6.07;;;9.30;99.90;;;;;;5052843;28;20600;-66
2021/05/06 13:51:38;;;;;;;9.63;6.65;;;9.30;99.90;;;;;;5050482;28;20594;-66
2021/05/06 13:54:05;;;;;;;10.05;6.65;;;9.30;99.90;;;;;;5051874;28;20045;-66
2021/05/06 13:56:32;;;;;;;10.93;6.70;;;9.40;99.90;;;;;;5050056;28;20461;-66
2021/05/06 13:58:59;;;;;;;10.20;6.40;;;9.50;99.90;;;;;;5054364;28;20068;-65
2021/05/06 14:01:26;;;;;;;15.98;6.90;;;9.50;99.90;;;;;;5053571;28;20048;-67
2021/05/06 14:03:54;;;;;;;8.43;6.82;;;9.50;99.90;;;;;;5056429;28;20053;-67
2021/05/06 14:06:22;;;;;;;10.85;6.78;;;9.50;99.90;;;;;;5053242;28;20519;-67
2021/05/06 14:08:49;;;;;;;9.77;6.30;;;9.60;99.90;;;;;;5052530;28;20053;-66
2021/05/06 14:11:16;;;;;;;9.13;6.10;;;9.70;99.90;;;;;;5054567;28;20083;-66
2021/05/06 14:14:01;;;;;;;9.85;6.97;;;9.70;99.90;;;;;;5053404;28;20124;-66
2021/05/06 14:16:28;;;;;;;8.73;6.50;;;9.70;99.90;;;;;;5053639;28;20132;-66
2021/05/06 14:18:54;;;;;;;10.38;6.03;;;9.70;99.90;;;;;;5050678;28;21168;-66
2021/05/06 14:21:23;;;;;;;7.25;5.75;;;9.80;99.90;;;;;;5054050;28;20415;-67
2021/05/06 14:23:51;;;;;;;11.48;6.57;;;9.80;99.90;;;;;;5051237;28;20526;-66
2021/05/06 14:26:19;;;;;;;9.75;6.53;;;10.00;99.90;;;;;;5050761;28;20049;-67
2021/05/06 14:28:46;;;;;;;13.82;6.72;;;10.00;99.90;;;;;;5051450;28;20164;-67
2021/05/06 14:31:14;;;;;;;8.85;6.18;;;10.20;99.90;;;;;;5052016;28;20522;-66
2021/05/06 14:33:41;;;;;;;14.50;7.22;;;10.10;99.90;;;;;;5053735;28;20064;-65
2021/05/06 14:36:10;;;;;;;14.07;6.78;;;10.20;99.90;;;;;;5052763;28;20190;-66
2021/05/06 14:38:38;;;;;;;13.48;6.25;;;10.20;99.90;;;;;;5051307;28;20057;-67
2021/05/06 14:41:06;;;;;;;9.98;5.78;;;10.20;99.90;;;;;;5053509;28;20052;-66
2021/05/06 14:43:33;;;;;;;9.80;6.15;;;10.10;99.90;;;;;;5051317;28;20053;-65
2021/05/06 14:46:01;;;;;;;13.73;6.88;;;10.10;99.90;;;;;;5049794;28;20044;-66
2021/05/06 14:48:28;;;;;;;13.95;7.32;;;10.10;99.90;;;;;;5052789;28;20053;-66
2021/05/06 14:50:55;;;;;;;11.45;7.38;;;10.10;99.90;;;;;;5049738;28;20487;-66
2021/05/06 14:53:23;;;;;;;12.23;7.45;;;10.00;99.90;;;;;;5049958;28;20049;-66
2021/05/06 14:55:51;;;;;;;10.70;6.88;;;10.00;99.90;;;;;;5049973;28;20057;-66
2021/05/06 14:58:18;;;;;;;10.65;6.40;;;10.00;99.90;;;;;;5050579;28;20125;-67
2021/05/06 15:00:45;;;;;;;10.05;6.43;;;9.90;99.90;;;;;;5050262;28;20060;-67
2021/05/06 15:03:11;;;;;;;12.13;6.43;;;9.90;99.90;;;;;;5052984;28;20045;-66
2021/05/06 15:05:39;;;;;;;9.05;6.45;;;10.00;99.90;;;;;;5050516;28;20049;-65
2021/05/06 15:08:06;;;;;;;10.85;6.50;;;10.00;99.90;;;;;;5052447;28;20041;-66
2021/05/06 15:10:33;;;;;;;10.88;6.50;;;10.00;99.90;;;;;;5054252;28;20463;-67
2021/05/06 15:13:00;;;;;;;10.20;6.25;;;9.90;99.90;;;;;;5052230;28;20132;-66
2021/05/06 15:15:28;;;;;;;12.27;7.00;;;9.90;99.90;;;;;;5052224;28;20049;-65
2021/05/06 15:17:58;;;;;;;11.15;6.72;;;9.80;99.90;;;;;;5047953;28;20041;-65
2021/05/06 15:20:25;;;;;;;15.77;8.25;;;9.80;99.90;;;;;;5044611;28;20464;-65
2021/05/06 15:22:53;;;;;;;13.23;8.68;;;9.80;99.90;;;;;;5047688;28;20053;-65
2021/05/06 15:25:21;;;;;;;12.02;7.35;;;9.70;99.90;;;;;;5048896;28;20049;-65
2021/05/06 15:27:49;;;;;;;10.00;6.57;;;9.60;99.90;;;;;;5046839;28;20049;-66
2021/05/06 15:30:19;;;;;;;9.27;6.90;;;9.60;99.90;;;;;;5051747;28;20049;-66
2021/05/06 15:32:46;;;;;;;11.25;6.63;;;9.60;99.90;;;;;;5047932;28;20044;-65
2021/05/06 15:35:15;;;;;;;9.25;6.50;;;9.70;99.90;;;;;;5052064;28;20072;-64
2021/05/06 15:37:42;;;;;;;10.23;6.82;;;9.70;99.90;;;;;;5049996;28;20048;-66
2021/05/06 15:40:11;;;;;;;9.38;6.43;;;9.70;99.90;;;;;;5050233;28;20045;-66
2021/05/06 15:42:39;;;;;;;10.00;6.10;;;9.70;99.90;;;;;;5050894;28;20092;-65
2021/05/06 15:45:09;;;;;;;8.88;5.90;;;9.80;99.90;;;;;;5050924;28;20107;-65
2021/05/06 15:47:38;;;;;;;12.07;6.10;;;9.80;99.90;;;;;;5050897;28;20045;-66
2021/05/06 15:50:10;;;;;;;16.30;6.63;;;9.80;99.90;;;;;;5051381;28;20045;-65
2021/05/06 15:52:37;;;;;;;13.30;6.72;;;9.80;99.90;;;;;;5049961;28;20048;-64
2021/05/06 15:55:08;;;;;;;8.18;5.82;;;9.80;99.90;;;;;;5050043;28;20136;-65
2021/05/06 15:57:37;;;;;;;8.32;5.65;;;9.70;99.90;;;;;;5050963;28;20159;-66
2021/05/06 16:00:06;;;;;;;9.52;6.00;;;9.60;99.90;;;;;;5051887;28;20392;-66
2021/05/06 16:02:42;;;;;;;9.68;5.20;;;9.50;99.90;;;;;;5051250;28;20045;-66
2021/05/06 16:05:15;;;;;;;9.07;6.22;;;9.50;99.90;;;;;;5052364;28;20041;-66
2021/05/06 16:07:42;;;;;;;10.13;5.78;;;9.40;99.90;;;;;;5050425;28;20833;-66
2021/05/06 16:10:10;;;;;;;13.43;5.95;;;9.40;99.90;;;;;;5051419;28;20051;-65
2021/05/06 16:12:37;;;;;;;11.77;6.20;;;9.30;99.90;;;;;;5050705;28;20393;-66
2021/05/06 16:15:04;;;;;;;12.32;6.30;;;9.20;99.90;;;;;;5049014;28;20087;-66
2021/05/06 16:17:31;;;;;;;8.80;5.65;;;9.10;99.90;;;;;;5049684;28;20492;-65
2021/05/06 16:19:58;;;;;;;12.65;6.72;;;9.10;99.90;;;;;;5051324;28;20049;-66
2021/05/06 16:22:25;;;;;;;13.00;6.68;;;9.10;99.90;;;;;;5051119;28;20057;-65
2021/05/06 16:24:52;;;;;;;20.02;10.43;;;9.00;99.90;;;;;;5049681;28;20049;-65
2021/05/06 16:27:18;;;;;;;14.65;9.10;;;9.00;99.90;;;;;;5048406;28;20049;-66
2021/05/06 16:29:46;;;;;;;16.65;7.95;;;9.00;99.90;;;;;;5049167;28;20044;-65
2021/05/06 16:32:13;;;;;;;11.82;7.30;;;9.00;99.90;;;;;;5051006;28;20426;-66